Rhum Marin — FAE4673 — position and weather

sailwx.info

Track history (hours):
 
Tides and Currents Weather Stations Pressure Air Temp Water Temp Dewpoint Dewpoint Depression Visibility Wind Speed Wind Dir Waves Ship Positions

Rhum Marin

Last reported at 2017-Nov-05 16:20 UTC. Time now 2017-Nov-24 18:45 UTC.
Position N 46°09' W 001°10'.
Warning: this ship's position is 19 days out of date.

Length 12 m.

Type: Pleasure craft. MMSI: 227479020.

Date/timePositionNaut miles runAvg speedWind from/ knotsBaromVisibWave heightAir tempDewpointWater temp
2017-Nov-05 16:20N 46°09' W 001°10'0 1.3
2017-Nov-05 16:00N 46°09' W 001°11'3 4.8
2017-Nov-05 15:28N 46°09' W 001°14'0 1.0
2017-Nov-05 15:00N 46°08' W 001°15'3 5.5
2017-Nov-05 14:30N 46°09' W 001°10'  
2017-Oct-31 09:01N 46°09' W 001°10'0 0.0
2017-Oct-31 08:58N 46°09' W 001°10'0 0.0
2017-Oct-30 10:53N 46°09' W 001°10'0 0.0
2017-Oct-29 15:48N 46°09' W 001°10'0 0.0
2017-Oct-29 15:27N 46°09' W 001°10'0 0.0
2017-Oct-29 15:00N 46°09' W 001°10'1 1.3
2017-Oct-29 14:29N 46°08' W 001°11'2 4.5
2017-Oct-29 14:00N 46°07' W 001°13'1 2.7
2017-Oct-29 13:28N 46°06' W 001°15'3 5.4
2017-Oct-29 13:00N 46°07' W 001°11'1 1.3
2017-Oct-29 12:30N 46°06' W 001°11'3 5.9
2017-Oct-29 11:58N 46°03' W 001°11'2 1.7
2017-Oct-29 10:47N 46°01' W 001°12'2 5.1
2017-Oct-29 10:28N 46°03' W 001°12'2 4.5
2017-Oct-29 10:00N 46°05' W 001°12'2 4.7
2017-Oct-29 09:30N 46°07' W 001°11'2 3.1
2017-Oct-29 08:59N 46°09' W 001°11'1 1.2
2017-Oct-29 08:30N 46°09' W 001°10'0 0.0
2017-Oct-29 07:47N 46°09' W 001°10'0 0.0
2017-Oct-28 17:43N 46°09' W 001°10'0 0.0
2017-Oct-28 17:28N 46°09' W 001°10'0 0.0
2017-Oct-28 16:55N 46°09' W 001°10'0 0.0
2017-Oct-28 16:28N 46°09' W 001°10'0 0.0
2017-Oct-28 15:58N 46°09' W 001°10'1 1.8
2017-Oct-28 15:30N 46°08' W 001°11'1 2.7
2017-Oct-28 15:00N 46°07' W 001°13'1 2.0
2017-Oct-28 14:30N 46°08' W 001°12'2 3.4
2017-Oct-28 14:00N 46°08' W 001°14'1 2.0
2017-Oct-28 13:30N 46°09' W 001°15'1 1.0
2017-Oct-28 12:59N 46°08' W 001°16'1 2.6
2017-Oct-28 12:30N 46°09' W 001°14'1 1.2
2017-Oct-28 12:00N 46°09' W 001°15'1 2.0
2017-Oct-28 11:30N 46°08' W 001°14'1 2.2
2017-Oct-28 11:00N 46°08' W 001°12'0 0.6
2017-Oct-28 10:27N 46°08' W 001°13'0 0.1
2017-Oct-28 10:00N 46°08' W 001°13'0 0.0
2017-Oct-28 09:24N 46°08' W 001°13'0 0.9
2017-Oct-28 09:00N 46°08' W 001°12'2 3.2
2017-Oct-28 08:29N 46°09' W 001°10'0 0.0
2017-Oct-27 12:13N 46°09' W 001°10'0 0.0
2017-Oct-27 12:00N 46°09' W 001°10'  
Track history (hours):
 
Tides and Currents Weather Stations Pressure Air Temp Water Temp Dewpoint Dewpoint Depression Visibility Wind Speed Wind Dir Waves Ship Positions

Rhum Marin

Last reported at 2017-Nov-05 16:20 UTC. Time now 2017-Nov-24 18:45 UTC.
Position N 46°09' W 001°10'.
Warning: this ship's position is 19 days out of date.

Length 12 m.

Type: Pleasure craft. MMSI: 227479020.

Date/timePositionNaut miles runAvg speedWind from/ knotsBaromVisibWave heightAir tempDewpointWater temp
2017-Nov-05 16:20N 46°09' W 001°10'0 1.3
2017-Nov-05 16:00N 46°09' W 001°11'3 4.8
2017-Nov-05 15:28N 46°09' W 001°14'0 1.0
2017-Nov-05 15:00N 46°08' W 001°15'3 5.5
2017-Nov-05 14:30N 46°09' W 001°10'  
2017-Oct-31 09:01N 46°09' W 001°10'0 0.0
2017-Oct-31 08:58N 46°09' W 001°10'0 0.0
2017-Oct-30 10:53N 46°09' W 001°10'0 0.0
2017-Oct-29 15:48N 46°09' W 001°10'0 0.0
2017-Oct-29 15:27N 46°09' W 001°10'0 0.0
2017-Oct-29 15:00N 46°09' W 001°10'1 1.3
2017-Oct-29 14:29N 46°08' W 001°11'2 4.5
2017-Oct-29 14:00N 46°07' W 001°13'1 2.7
2017-Oct-29 13:28N 46°06' W 001°15'3 5.4
2017-Oct-29 13:00N 46°07' W 001°11'1 1.3
2017-Oct-29 12:30N 46°06' W 001°11'3 5.9
2017-Oct-29 11:58N 46°03' W 001°11'2 1.7
2017-Oct-29 10:47N 46°01' W 001°12'2 5.1
2017-Oct-29 10:28N 46°03' W 001°12'2 4.5
2017-Oct-29 10:00N 46°05' W 001°12'2 4.7
2017-Oct-29 09:30N 46°07' W 001°11'2 3.1
2017-Oct-29 08:59N 46°09' W 001°11'1 1.2
2017-Oct-29 08:30N 46°09' W 001°10'0 0.0
2017-Oct-29 07:47N 46°09' W 001°10'0 0.0
2017-Oct-28 17:43N 46°09' W 001°10'0 0.0
2017-Oct-28 17:28N 46°09' W 001°10'0 0.0
2017-Oct-28 16:55N 46°09' W 001°10'0 0.0
2017-Oct-28 16:28N 46°09' W 001°10'0 0.0
2017-Oct-28 15:58N 46°09' W 001°10'1 1.8
2017-Oct-28 15:30N 46°08' W 001°11'1 2.7
2017-Oct-28 15:00N 46°07' W 001°13'1 2.0
2017-Oct-28 14:30N 46°08' W 001°12'2 3.4
2017-Oct-28 14:00N 46°08' W 001°14'1 2.0
2017-Oct-28 13:30N 46°09' W 001°15'1 1.0
2017-Oct-28 12:59N 46°08' W 001°16'1 2.6
2017-Oct-28 12:30N 46°09' W 001°14'1 1.2
2017-Oct-28 12:00N 46°09' W 001°15'1 2.0
2017-Oct-28 11:30N 46°08' W 001°14'1 2.2
2017-Oct-28 11:00N 46°08' W 001°12'0 0.6
2017-Oct-28 10:27N 46°08' W 001°13'0 0.1
2017-Oct-28 10:00N 46°08' W 001°13'0 0.0
2017-Oct-28 09:24N 46°08' W 001°13'0 0.9
2017-Oct-28 09:00N 46°08' W 001°12'2 3.2
2017-Oct-28 08:29N 46°09' W 001°10'0 0.0
2017-Oct-27 12:13N 46°09' W 001°10'0 0.0
2017-Oct-27 12:00N 46°09' W 001°10'  

Dump ship's entire track history